createdAt,value
2018-05-17T00:00:37.431Z,1012.77
2018-05-17T00:01:37.422Z,1012.76
2018-05-17T00:02:37.411Z,1012.78
2018-05-17T00:03:37.389Z,1012.78
2018-05-17T00:04:37.384Z,1012.81
2018-05-17T00:05:37.360Z,1012.82
2018-05-17T00:06:37.341Z,1012.84
2018-05-17T00:07:37.319Z,1012.84
2018-05-17T00:08:37.310Z,1012.85
2018-05-17T00:09:37.290Z,1012.85
2018-05-17T00:10:37.283Z,1012.87
2018-05-17T00:11:37.258Z,1012.90
2018-05-17T00:12:37.251Z,1012.89
2018-05-17T00:13:37.232Z,1012.88
2018-05-17T00:14:37.219Z,1012.88
2018-05-17T00:15:37.201Z,1012.92
2018-05-17T00:16:37.186Z,1012.91
2018-05-17T00:17:37.172Z,1012.87
2018-05-17T00:18:37.155Z,1012.84
2018-05-17T00:19:37.140Z,1012.86
2018-05-17T00:20:37.117Z,1012.84
2018-05-17T00:21:37.107Z,1012.83
2018-05-17T00:22:37.091Z,1012.86
2018-05-17T00:23:37.082Z,1012.90
2018-05-17T00:24:37.060Z,1012.91
2018-05-17T00:25:37.049Z,1012.88
2018-05-17T00:26:37.026Z,1012.91
2018-05-17T00:27:37.008Z,1012.91
2018-05-17T00:28:37.035Z,1012.91
2018-05-17T00:29:36.992Z,1012.92
2018-05-17T00:30:36.971Z,1012.96
2018-05-17T00:31:36.953Z,1012.95
2018-05-17T00:32:36.939Z,1012.93
2018-05-17T00:33:36.916Z,1012.93
2018-05-17T00:34:36.905Z,1012.98
2018-05-17T00:35:36.885Z,1012.95
2018-05-17T00:36:36.882Z,1012.93
2018-05-17T00:37:36.859Z,1012.94
2018-05-17T00:38:36.838Z,1012.97
2018-05-17T00:39:36.822Z,1012.97
2018-05-17T00:40:36.805Z,1012.98
2018-05-17T00:41:36.792Z,1012.94
2018-05-17T00:42:36.812Z,1012.99
2018-05-17T00:43:36.758Z,1012.94
2018-05-17T00:44:36.739Z,1012.98
2018-05-17T00:45:36.739Z,1012.99
2018-05-17T00:46:36.867Z,1013.01
2018-05-17T00:47:36.697Z,1013.03
2018-05-17T00:48:36.777Z,1012.97
2018-05-17T00:49:36.671Z,1013.02
2018-05-17T00:50:36.751Z,1012.98
2018-05-17T00:51:36.628Z,1012.98
2018-05-17T00:52:36.719Z,1012.98
2018-05-17T00:53:36.597Z,1013.00
2018-05-17T00:54:36.684Z,1013.01
2018-05-17T00:55:36.573Z,1013.01
2018-05-17T00:56:36.652Z,1013.02
2018-05-17T00:57:36.541Z,1013.02
2018-05-17T00:58:36.572Z,1013.01
2018-05-17T00:59:36.506Z,1012.99
2018-05-17T01:00:36.493Z,1013.00
2018-05-17T01:01:36.483Z,1012.96
2018-05-17T01:02:36.458Z,1012.97
2018-05-17T01:03:36.442Z,1013.00
2018-05-17T01:04:36.430Z,1012.99
2018-05-17T01:05:36.414Z,1012.97
2018-05-17T01:06:36.394Z,1012.98
2018-05-17T01:07:36.371Z,1013.01
2018-05-17T01:08:36.363Z,1012.98
2018-05-17T01:09:36.343Z,1013.00
2018-05-17T01:10:36.334Z,1013.02
2018-05-17T01:11:36.307Z,1013.01
2018-05-17T01:12:36.297Z,1013.02
2018-05-17T01:13:36.281Z,1012.99
2018-05-17T01:14:36.263Z,1012.98
2018-05-17T01:15:36.247Z,1013.01
2018-05-17T01:16:36.231Z,1013.03
2018-05-17T01:17:36.222Z,1013.06
2018-05-17T01:18:36.201Z,1013.07
2018-05-17T01:19:36.183Z,1013.06
2018-05-17T01:20:36.167Z,1013.07
2018-05-17T01:21:36.158Z,1013.07
2018-05-17T01:22:36.142Z,1013.10
2018-05-17T01:23:36.123Z,1013.11
2018-05-17T01:24:36.113Z,1013.10
2018-05-17T01:25:36.091Z,1013.12
2018-05-17T01:26:36.077Z,1013.15
2018-05-17T01:27:36.054Z,1013.14
2018-05-17T01:28:36.041Z,1013.14
2018-05-17T01:29:36.035Z,1013.18
2018-05-17T01:30:36.021Z,1013.13
2018-05-17T01:31:35.996Z,1013.12
2018-05-17T01:32:35.986Z,1013.10
2018-05-17T01:33:35.965Z,1013.10
2018-05-17T01:34:35.960Z,1013.10
2018-05-17T01:35:35.934Z,1013.05
2018-05-17T01:36:35.923Z,1013.08
2018-05-17T01:37:35.907Z,1013.04
2018-05-17T01:38:35.889Z,1013.09
2018-05-17T01:39:35.870Z,1013.09
2018-05-17T01:40:35.847Z,1013.05
2018-05-17T01:41:35.835Z,1013.12
2018-05-17T01:42:35.829Z,1013.12
2018-05-17T01:43:35.821Z,1013.14
2018-05-17T01:44:35.790Z,1013.17
2018-05-17T01:45:35.777Z,1013.12
2018-05-17T01:46:35.780Z,1013.12
2018-05-17T01:47:35.745Z,1013.14
2018-05-17T01:48:35.735Z,1013.15
2018-05-17T01:49:35.711Z,1013.16
2018-05-17T01:50:35.707Z,1013.15
2018-05-17T01:51:35.675Z,1013.12
2018-05-17T01:52:35.658Z,1013.14
2018-05-17T01:53:35.655Z,1013.17
2018-05-17T01:54:35.649Z,1013.21
2018-05-17T01:55:35.621Z,1013.17
2018-05-17T01:56:35.607Z,1013.20
2018-05-17T01:57:35.585Z,1013.23
2018-05-17T01:58:35.571Z,1013.22
2018-05-17T01:59:35.552Z,1013.21
2018-05-17T02:00:35.540Z,1013.23
2018-05-17T02:01:35.532Z,1013.23
2018-05-17T02:02:35.508Z,1013.19
2018-05-17T02:03:35.486Z,1013.23
2018-05-17T02:04:35.482Z,1013.20
2018-05-17T02:05:35.458Z,1013.20
2018-05-17T02:06:35.444Z,1013.21
2018-05-17T02:07:35.430Z,1013.19
2018-05-17T02:08:35.410Z,1013.22
2018-05-17T02:09:35.393Z,1013.21
2018-05-17T02:10:35.378Z,1013.23
2018-05-17T02:11:35.363Z,1013.19
2018-05-17T02:12:35.353Z,1013.22
2018-05-17T02:13:35.333Z,1013.22
2018-05-17T02:14:35.306Z,1013.21
2018-05-17T02:15:35.297Z,1013.22
2018-05-17T02:16:35.291Z,1013.22
2018-05-17T02:17:35.270Z,1013.24
2018-05-17T02:18:35.253Z,1013.24
2018-05-17T02:19:35.238Z,1013.24
2018-05-17T02:20:35.219Z,1013.24
2018-05-17T02:21:35.210Z,1013.25
2018-05-17T02:22:35.183Z,1013.21
2018-05-17T02:23:35.164Z,1013.25
2018-05-17T02:24:35.145Z,1013.22
2018-05-17T02:25:35.138Z,1013.23
2018-05-17T02:26:35.119Z,1013.23
2018-05-17T02:27:35.102Z,1013.23
2018-05-17T02:28:35.087Z,1013.27
2018-05-17T02:29:35.068Z,1013.23
2018-05-17T02:30:35.052Z,1013.25
2018-05-17T02:31:35.035Z,1013.26
2018-05-17T02:32:35.019Z,1013.28
2018-05-17T02:33:35.006Z,1013.27
2018-05-17T02:34:34.991Z,1013.27
2018-05-17T02:35:34.975Z,1013.26
2018-05-17T02:36:34.961Z,1013.25
2018-05-17T02:37:34.943Z,1013.31
2018-05-17T02:38:34.935Z,1013.34
2018-05-17T02:39:34.912Z,1013.30
2018-05-17T02:40:34.895Z,1013.35
2018-05-17T02:41:34.882Z,1013.33
2018-05-17T02:42:34.864Z,1013.38
2018-05-17T02:43:34.848Z,1013.34
2018-05-17T02:44:34.833Z,1013.36
2018-05-17T02:45:34.807Z,1013.39
2018-05-17T02:46:34.801Z,1013.41
2018-05-17T02:47:34.776Z,1013.39
2018-05-17T02:48:34.766Z,1013.40
2018-05-17T02:49:34.747Z,1013.41
2018-05-17T02:50:34.738Z,1013.40
2018-05-17T02:51:34.718Z,1013.40
2018-05-17T02:52:34.696Z,1013.39
2018-05-17T02:53:34.684Z,1013.37
2018-05-17T02:54:34.670Z,1013.37
2018-05-17T02:55:34.653Z,1013.36
2018-05-17T02:56:34.650Z,1013.39
2018-05-17T02:57:34.623Z,1013.38
2018-05-17T02:58:34.608Z,1013.38
2018-05-17T02:59:34.585Z,1013.40
2018-05-17T03:00:34.576Z,1013.41
2018-05-17T03:01:34.558Z,1013.37
2018-05-17T03:02:34.547Z,1013.40
2018-05-17T03:03:34.519Z,1013.39
2018-05-17T03:04:34.508Z,1013.39
2018-05-17T03:05:34.485Z,1013.39
2018-05-17T03:06:34.473Z,1013.40
2018-05-17T03:07:34.458Z,1013.44
2018-05-17T03:08:34.439Z,1013.44
2018-05-17T03:09:34.425Z,1013.44
2018-05-17T03:10:34.410Z,1013.46
2018-05-17T03:11:34.397Z,1013.42
2018-05-17T03:12:34.379Z,1013.46
2018-05-17T03:13:34.367Z,1013.40
2018-05-17T03:14:34.352Z,1013.42
2018-05-17T03:15:34.334Z,1013.46
2018-05-17T03:16:34.314Z,1013.45
2018-05-17T03:17:34.294Z,1013.49
2018-05-17T03:18:34.278Z,1013.46
2018-05-17T03:19:34.269Z,1013.55
2018-05-17T03:20:34.254Z,1013.50
2018-05-17T03:21:34.228Z,1013.58
2018-05-17T03:22:34.211Z,1013.61
2018-05-17T03:23:34.199Z,1013.57
2018-05-17T03:24:34.186Z,1013.62
2018-05-17T03:25:34.170Z,1013.60
2018-05-17T03:26:34.154Z,1013.61
2018-05-17T03:27:34.243Z,1013.60
2018-05-17T03:28:34.119Z,1013.52
2018-05-17T03:29:34.161Z,1013.46
2018-05-17T03:30:34.084Z,1013.53
2018-05-17T03:31:34.078Z,1013.52
2018-05-17T03:32:34.056Z,1013.50
2018-05-17T03:33:34.043Z,1013.48
2018-05-17T03:34:34.024Z,1013.46
2018-05-17T03:35:34.004Z,1013.47
2018-05-17T03:36:33.983Z,1013.47
2018-05-17T03:37:33.973Z,1013.47
2018-05-17T03:38:33.955Z,1013.46
2018-05-17T03:39:34.033Z,1013.46
2018-05-17T03:40:33.918Z,1013.49
2018-05-17T03:41:33.960Z,1013.48
2018-05-17T03:42:33.887Z,1013.51
2018-05-17T03:43:33.897Z,1013.48
2018-05-17T03:44:33.861Z,1013.48
2018-05-17T03:45:33.896Z,1013.51
2018-05-17T03:46:33.826Z,1013.47
2018-05-17T03:47:33.803Z,1013.49
2018-05-17T03:48:33.794Z,1013.50
2018-05-17T03:49:33.884Z,1013.49
2018-05-17T03:50:33.762Z,1013.47
2018-05-17T03:51:33.746Z,1013.48
2018-05-17T03:52:33.736Z,1013.46
2018-05-17T03:53:33.708Z,1013.50
2018-05-17T03:54:33.695Z,1013.49
2018-05-17T03:55:33.679Z,1013.44
2018-05-17T03:56:33.657Z,1013.47
2018-05-17T03:57:33.646Z,1013.47
2018-05-17T03:58:33.634Z,1013.43
2018-05-17T03:59:33.665Z,1013.45
2018-05-17T04:00:33.597Z,1013.46
2018-05-17T04:01:33.576Z,1013.42
2018-05-17T04:02:33.564Z,1013.43
2018-05-17T04:03:33.549Z,1013.47
2018-05-17T04:04:33.534Z,1013.42
2018-05-17T04:05:33.515Z,1013.47
2018-05-17T04:06:33.502Z,1013.51
2018-05-17T04:07:33.481Z,1013.50
2018-05-17T04:08:33.518Z,1013.52
2018-05-17T04:09:33.450Z,1013.46
2018-05-17T04:10:33.438Z,1013.48
2018-05-17T04:11:33.430Z,1013.49
2018-05-17T04:12:33.406Z,1013.51
2018-05-17T04:13:33.388Z,1013.47
2018-05-17T04:14:33.368Z,1013.47
2018-05-17T04:15:33.353Z,1013.50
2018-05-17T04:16:33.336Z,1013.51
2018-05-17T04:17:33.321Z,1013.55
2018-05-17T04:18:33.304Z,1013.50
2018-05-17T04:19:33.288Z,1013.53
2018-05-17T04:20:33.273Z,1013.57
2018-05-17T04:21:33.255Z,1013.53
2018-05-17T04:22:33.243Z,1013.59
2018-05-17T04:23:33.227Z,1013.61
2018-05-17T04:24:33.215Z,1013.57
2018-05-17T04:25:33.192Z,1013.63
2018-05-17T04:26:33.180Z,1013.61
2018-05-17T04:27:33.162Z,1013.62
2018-05-17T04:28:33.144Z,1013.61
2018-05-17T04:29:33.130Z,1013.57
2018-05-17T04:30:33.109Z,1013.62
2018-05-17T04:31:33.090Z,1013.59
2018-05-17T04:32:33.076Z,1013.62
2018-05-17T04:33:33.060Z,1013.65
2018-05-17T04:34:33.052Z,1013.64
2018-05-17T04:35:33.034Z,1013.66
2018-05-17T04:36:33.015Z,1013.67
2018-05-17T04:37:32.998Z,1013.66
2018-05-17T04:38:33.011Z,1013.66
2018-05-17T04:39:32.964Z,1013.65
2018-05-17T04:40:33.025Z,1013.68
2018-05-17T04:41:32.931Z,1013.67
2018-05-17T04:42:32.915Z,1013.67
2018-05-17T04:43:32.947Z,1013.62
2018-05-17T04:44:32.888Z,1013.67
2018-05-17T04:45:32.870Z,1013.65
2018-05-17T04:46:32.848Z,1013.62
2018-05-17T04:47:32.836Z,1013.67
2018-05-17T04:48:32.819Z,1013.67
2018-05-17T04:49:32.802Z,1013.62
2018-05-17T04:50:32.787Z,1013.64
2018-05-17T04:51:32.768Z,1013.63
2018-05-17T04:52:32.760Z,1013.66
2018-05-17T04:53:32.742Z,1013.67
2018-05-17T04:54:32.723Z,1013.65
2018-05-17T04:55:32.697Z,1013.63
2018-05-17T04:56:32.688Z,1013.69
2018-05-17T04:57:32.668Z,1013.65
2018-05-17T04:58:32.659Z,1013.64
2018-05-17T04:59:32.646Z,1013.65
2018-05-17T05:00:32.623Z,1013.64
2018-05-17T05:01:32.607Z,1013.66
2018-05-17T05:02:32.607Z,1013.67
2018-05-17T05:03:32.576Z,1013.69
2018-05-17T05:04:32.556Z,1013.70
2018-05-17T05:05:32.555Z,1013.70
2018-05-17T05:06:32.532Z,1013.72
2018-05-17T05:07:32.518Z,1013.70
2018-05-17T05:08:32.499Z,1013.71
2018-05-17T05:09:32.599Z,1013.70
2018-05-17T05:10:32.472Z,1013.74
2018-05-17T05:11:32.450Z,1013.73
2018-05-17T05:12:32.434Z,1013.75
2018-05-17T05:13:32.419Z,1013.74
2018-05-17T05:14:32.402Z,1013.72
2018-05-17T05:15:32.389Z,1013.74
2018-05-17T05:16:32.376Z,1013.72
2018-05-17T05:17:32.360Z,1013.77
2018-05-17T05:18:32.338Z,1013.73
2018-05-17T05:19:32.319Z,1013.71
2018-05-17T05:20:32.306Z,1013.69
2018-05-17T05:21:32.293Z,1013.76
2018-05-17T05:22:32.273Z,1013.76
2018-05-17T05:23:32.256Z,1013.78
2018-05-17T05:24:32.240Z,1013.75
2018-05-17T05:25:32.227Z,1013.80
2018-05-17T05:26:32.209Z,1013.77
2018-05-17T05:27:32.233Z,1013.78
2018-05-17T05:28:32.377Z,1013.78
2018-05-17T05:29:32.156Z,1013.80
2018-05-17T05:30:32.150Z,1013.81
2018-05-17T05:31:32.188Z,1013.83
2018-05-17T05:32:32.195Z,1013.86
2018-05-17T05:33:32.099Z,1013.87
2018-05-17T05:34:32.091Z,1013.83
2018-05-17T05:35:32.068Z,1013.83
2018-05-17T05:36:32.154Z,1013.88
2018-05-17T05:37:32.065Z,1013.90
2018-05-17T05:38:32.020Z,1013.89
2018-05-17T05:39:31.997Z,1013.87
2018-05-17T05:40:32.029Z,1013.87
2018-05-17T05:41:31.969Z,1013.87
2018-05-17T05:42:31.959Z,1013.91
2018-05-17T05:43:31.944Z,1013.89
2018-05-17T05:44:31.925Z,1013.90
2018-05-17T05:45:31.911Z,1013.88
2018-05-17T05:46:31.892Z,1013.90
2018-05-17T05:47:31.882Z,1013.92
2018-05-17T05:48:31.860Z,1013.90
2018-05-17T05:49:31.930Z,1013.86
2018-05-17T05:50:31.831Z,1013.86
2018-05-17T05:51:31.819Z,1013.85
2018-05-17T05:52:31.797Z,1013.86
2018-05-17T05:53:31.783Z,1013.87
2018-05-17T05:54:31.771Z,1013.92
2018-05-17T05:55:31.748Z,1013.93
2018-05-17T05:56:31.742Z,1013.89
2018-05-17T05:57:31.722Z,1013.94
2018-05-17T05:58:31.704Z,1013.98
2018-05-17T05:59:31.707Z,1013.97
2018-05-17T06:00:31.671Z,1013.97
2018-05-17T06:01:31.657Z,1014.01
2018-05-17T06:02:31.644Z,1014.00
2018-05-17T06:03:31.629Z,1013.98
2018-05-17T06:04:31.608Z,1013.97
2018-05-17T06:05:31.600Z,1014.01
2018-05-17T06:06:31.583Z,1014.01
2018-05-17T06:07:31.564Z,1014.01
2018-05-17T06:08:31.548Z,1013.97
2018-05-17T06:09:31.529Z,1014.00
2018-05-17T06:10:31.523Z,1014.00
2018-05-17T06:11:31.500Z,1013.99
2018-05-17T06:12:31.493Z,1013.99
2018-05-17T06:13:31.468Z,1013.97
2018-05-17T06:14:31.453Z,1014.04
2018-05-17T06:15:31.440Z,1014.00
2018-05-17T06:16:31.424Z,1014.03
2018-05-17T06:17:31.456Z,1014.09
2018-05-17T06:18:31.391Z,1014.06
2018-05-17T06:19:31.372Z,1014.09
2018-05-17T06:20:31.363Z,1014.07
2018-05-17T06:21:31.376Z,1014.08
2018-05-17T06:22:31.331Z,1014.13
2018-05-17T06:23:31.314Z,1014.14
2018-05-17T06:24:31.303Z,1014.14
2018-05-17T06:25:31.282Z,1014.18
2018-05-17T06:26:31.271Z,1014.20
2018-05-17T06:27:31.252Z,1014.18
2018-05-17T06:28:31.232Z,1014.18
2018-05-17T06:29:31.220Z,1014.14
2018-05-17T06:30:31.204Z,1014.18
2018-05-17T06:31:31.185Z,1014.21
2018-05-17T06:32:31.172Z,1014.17
2018-05-17T06:33:31.157Z,1014.21
2018-05-17T06:34:31.136Z,1014.16
2018-05-17T06:35:31.128Z,1014.16
2018-05-17T06:36:31.109Z,1014.21
2018-05-17T06:37:31.131Z,1014.15
2018-05-17T06:38:31.076Z,1014.15
2018-05-17T06:39:31.093Z,1014.20
2018-05-17T06:40:31.050Z,1014.19
2018-05-17T06:41:31.035Z,1014.18
2018-05-17T06:42:31.021Z,1014.17
2018-05-17T06:43:30.997Z,1014.13
2018-05-17T06:44:30.991Z,1014.19
2018-05-17T06:45:30.973Z,1014.17
2018-05-17T06:46:30.958Z,1014.18
2018-05-17T06:47:30.940Z,1014.16
2018-05-17T06:48:30.927Z,1014.17
2018-05-17T06:49:30.915Z,1014.18
2018-05-17T06:50:30.898Z,1014.22
2018-05-17T06:51:30.873Z,1014.23
2018-05-17T06:52:30.866Z,1014.21
2018-05-17T06:53:30.847Z,1014.23
2018-05-17T06:54:30.831Z,1014.23
2018-05-17T06:55:30.821Z,1014.23
2018-05-17T06:56:30.802Z,1014.29
2018-05-17T06:57:30.789Z,1014.25
2018-05-17T06:58:30.785Z,1014.24
2018-05-17T06:59:30.757Z,1014.29
2018-05-17T07:00:30.801Z,1014.29
2018-05-17T07:01:30.730Z,1014.26
2018-05-17T07:02:30.715Z,1014.29
2018-05-17T07:03:30.698Z,1014.30
2018-05-17T07:04:30.687Z,1014.29
2018-05-17T07:05:30.680Z,1014.32
2018-05-17T07:06:30.656Z,1014.31
2018-05-17T07:07:30.643Z,1014.33
2018-05-17T07:08:30.628Z,1014.26
2018-05-17T07:09:30.618Z,1014.28
2018-05-17T07:10:30.669Z,1014.27
2018-05-17T07:11:30.583Z,1014.27
2018-05-17T07:12:30.571Z,1014.28
2018-05-17T07:13:30.551Z,1014.26
2018-05-17T07:14:30.542Z,1014.28
2018-05-17T07:15:30.528Z,1014.29
2018-05-17T07:16:30.510Z,1014.22
2018-05-17T07:17:30.497Z,1014.32
2018-05-17T07:18:30.719Z,1014.30
2018-05-17T07:19:30.464Z,1014.27
2018-05-17T07:20:30.455Z,1014.36
2018-05-17T07:21:30.438Z,1014.35
2018-05-17T07:22:30.433Z,1014.34
2018-05-17T07:23:30.413Z,1014.40
2018-05-17T07:24:30.401Z,1014.42
2018-05-17T07:25:30.378Z,1014.44
2018-05-17T07:26:30.371Z,1014.47
2018-05-17T07:27:30.355Z,1014.46
2018-05-17T07:28:30.342Z,1014.41
2018-05-17T07:29:30.330Z,1014.47
2018-05-17T07:30:30.308Z,1014.46
2018-05-17T07:31:30.301Z,1014.46
2018-05-17T07:32:30.288Z,1014.50
2018-05-17T07:33:30.278Z,1014.46
2018-05-17T07:34:30.263Z,1014.49
2018-05-17T07:35:30.251Z,1014.45
2018-05-17T07:36:30.235Z,1014.45
2018-05-17T07:37:30.221Z,1014.39
2018-05-17T07:38:30.209Z,1014.41
2018-05-17T07:39:30.195Z,1014.49
2018-05-17T07:40:30.180Z,1014.51
2018-05-17T07:41:30.173Z,1014.51
2018-05-17T07:42:30.158Z,1014.51
2018-05-17T07:43:30.151Z,1014.57
2018-05-17T07:44:30.128Z,1014.57
2018-05-17T07:45:30.125Z,1014.58
2018-05-17T07:46:30.107Z,1014.48
2018-05-17T07:47:30.087Z,1014.62
2018-05-17T07:48:30.080Z,1014.61
2018-05-17T07:49:30.060Z,1014.62
2018-05-17T07:50:30.047Z,1014.58
2018-05-17T07:51:30.041Z,1014.57
2018-05-17T07:52:30.032Z,1014.65
2018-05-17T07:53:30.016Z,1014.57
2018-05-17T07:54:30.010Z,1014.61
2018-05-17T07:55:30.013Z,1014.60
2018-05-17T07:56:29.977Z,1014.63
2018-05-17T07:57:29.971Z,1014.63
2018-05-17T07:58:29.958Z,1014.61
2018-05-17T07:59:29.942Z,1014.67
2018-05-17T08:00:29.974Z,1014.65
2018-05-17T08:01:29.913Z,1014.62
2018-05-17T08:02:29.903Z,1014.69
2018-05-17T08:03:29.894Z,1014.68
2018-05-17T08:04:29.891Z,1014.67
2018-05-17T08:05:29.865Z,1014.72
2018-05-17T08:06:29.861Z,1014.79
2018-05-17T08:07:29.851Z,1014.69
2018-05-17T08:08:29.837Z,1014.72
2018-05-17T08:09:29.871Z,1014.72
2018-05-17T08:10:29.823Z,1014.71
2018-05-17T08:11:29.813Z,1014.71
2018-05-17T08:12:29.800Z,1014.73
2018-05-17T08:13:29.794Z,1014.69
2018-05-17T08:14:29.781Z,1014.76
2018-05-17T08:15:29.765Z,1014.72
2018-05-17T08:16:29.756Z,1014.72
2018-05-17T08:17:29.746Z,1014.73
2018-05-17T08:18:29.730Z,1014.78
2018-05-17T08:19:29.720Z,1014.76
2018-05-17T08:20:29.707Z,1014.82
2018-05-17T08:21:29.697Z,1014.79
2018-05-17T08:22:29.692Z,1014.79
2018-05-17T08:23:29.683Z,1014.74
2018-05-17T08:24:29.663Z,1014.81
2018-05-17T08:25:29.653Z,1014.90
2018-05-17T08:26:29.647Z,1014.84
2018-05-17T08:27:29.627Z,1014.81
2018-05-17T08:28:29.621Z,1014.75
2018-05-17T08:29:29.609Z,1014.82
2018-05-17T08:30:29.599Z,1014.81
2018-05-17T08:31:29.577Z,1014.83
2018-05-17T08:32:29.569Z,1015.11
2018-05-17T08:33:29.558Z,1014.85
2018-05-17T08:34:29.548Z,1014.96
2018-05-17T08:35:29.541Z,1015.09
2018-05-17T08:36:29.700Z,1014.88
2018-05-17T08:37:29.515Z,1014.91
2018-05-17T08:38:29.521Z,1014.91
2018-05-17T08:39:29.494Z,1014.93
2018-05-17T08:40:29.482Z,1014.97
2018-05-17T08:41:29.468Z,1014.88
2018-05-17T08:42:29.473Z,1014.93
2018-05-17T08:43:29.446Z,1014.91
2018-05-17T08:44:29.442Z,1014.95
2018-05-17T08:45:29.423Z,1015.21
2018-05-17T08:46:29.523Z,1015.06
2018-05-17T08:47:29.408Z,1015.27
2018-05-17T08:48:29.487Z,1015.11
2018-05-17T08:49:29.382Z,1015.17
2018-05-17T08:50:29.373Z,1015.82
2018-05-17T08:51:29.367Z,1015.75
2018-05-17T08:52:29.501Z,1015.76
2018-05-17T08:53:29.354Z,1015.78
2018-05-17T08:54:29.443Z,1015.76
2018-05-17T08:55:29.321Z,1015.71
2018-05-17T08:56:29.319Z,1015.68
2018-05-17T08:57:29.308Z,1015.70
2018-05-17T08:58:29.311Z,1015.63
2018-05-17T08:59:29.296Z,1015.60
2018-05-17T09:00:29.294Z,1015.33
2018-05-17T09:01:29.288Z,1015.11
2018-05-17T09:02:29.281Z,1015.78
2018-05-17T09:03:29.273Z,1015.06
2018-05-17T09:04:29.266Z,1014.92
2018-05-17T09:05:29.258Z,1015.75
2018-05-17T09:06:29.254Z,1015.69
2018-05-17T09:07:29.253Z,1015.63
2018-05-17T09:08:29.254Z,1015.58
2018-05-17T09:09:29.239Z,1015.55
2018-05-17T09:10:29.239Z,1015.55
2018-05-17T09:11:29.229Z,1015.61
2018-05-17T09:12:29.223Z,1015.58
2018-05-17T09:13:29.333Z,1015.54
2018-05-17T09:14:29.216Z,1015.48
2018-05-17T09:15:29.210Z,1015.48
2018-05-17T09:16:29.200Z,1015.46
2018-05-17T09:17:29.200Z,1015.48
2018-05-17T09:18:29.203Z,1015.57
2018-05-17T09:19:29.196Z,1015.50
2018-05-17T09:20:29.265Z,1015.52
2018-05-17T09:21:29.185Z,1015.47
2018-05-17T09:22:29.178Z,1015.50
2018-05-17T09:23:29.181Z,1015.57
2018-05-17T09:24:29.171Z,1015.57
2018-05-17T09:25:29.168Z,1014.99
2018-05-17T09:26:29.161Z,1015.54
2018-05-17T09:27:29.169Z,1014.93
2018-05-17T09:28:29.162Z,1014.96
2018-05-17T09:29:29.160Z,1015.57
2018-05-17T09:30:29.152Z,1015.42
2018-05-17T09:31:29.145Z,1015.29
2018-05-17T09:32:29.142Z,1015.39
2018-05-17T09:33:29.142Z,1015.37
2018-05-17T09:34:29.140Z,1015.34
2018-05-17T09:35:29.123Z,1015.28
2018-05-17T09:36:29.121Z,1015.07
2018-05-17T09:37:29.117Z,1015.06
2018-05-17T09:38:29.110Z,1014.99
2018-05-17T09:39:29.104Z,1015.12
2018-05-17T09:40:29.098Z,1015.11
2018-05-17T09:41:29.130Z,1015.20
2018-05-17T09:42:29.091Z,1015.23
2018-05-17T09:43:29.085Z,1015.05
2018-05-17T09:44:29.088Z,1015.08
2018-05-17T09:45:29.071Z,1015.05
2018-05-17T09:46:29.070Z,1015.04
2018-05-17T09:47:29.084Z,1015.03
2018-05-17T09:48:29.053Z,1015.29
2018-05-17T09:49:29.047Z,1015.32
2018-05-17T09:50:29.042Z,1015.26
2018-05-17T09:51:29.040Z,1015.26
2018-05-17T09:52:29.024Z,1015.13
2018-05-17T09:53:29.011Z,1015.05
2018-05-17T09:55:29.008Z,1015.08
2018-05-17T09:56:28.999Z,1015.21
2018-05-17T09:57:28.996Z,1015.15
2018-05-17T09:58:28.977Z,1015.14
2018-05-17T09:59:28.983Z,1015.08
2018-05-17T10:00:28.969Z,1015.08
2018-05-17T10:01:28.960Z,1015.05
2018-05-17T10:02:28.954Z,1015.06
2018-05-17T10:03:28.947Z,1014.92
2018-05-17T10:04:28.935Z,1015.02
2018-05-17T10:05:28.940Z,1015.04
2018-05-17T10:06:28.922Z,1015.00
2018-05-17T10:07:28.922Z,1015.03
2018-05-17T10:08:28.916Z,1015.06
2018-05-17T10:09:28.912Z,1015.04
2018-05-17T10:10:28.898Z,1014.99
2018-05-17T10:11:28.890Z,1014.98
2018-05-17T10:12:28.878Z,1014.98
2018-05-17T10:13:28.867Z,1014.97
2018-05-17T10:14:28.874Z,1014.92
2018-05-17T10:15:28.879Z,1014.94
2018-05-17T10:16:28.847Z,1014.84
2018-05-17T10:17:28.847Z,1014.85
2018-05-17T10:18:28.834Z,1014.83
2018-05-17T10:19:28.828Z,1014.81
2018-05-17T10:20:28.812Z,1014.78
2018-05-17T10:21:28.812Z,1014.79
2018-05-17T10:22:28.806Z,1014.81
2018-05-17T10:23:28.796Z,1014.75
2018-05-17T10:24:28.790Z,1014.72
2018-05-17T10:25:28.782Z,1014.72
2018-05-17T10:26:28.771Z,1014.68
2018-05-17T10:27:28.761Z,1014.74
2018-05-17T10:28:28.751Z,1014.84
2018-05-17T10:29:28.829Z,1014.72
2018-05-17T10:31:28.729Z,1014.78
2018-05-17T10:32:28.720Z,1014.62
2018-05-17T10:33:28.714Z,1014.70
2018-05-17T10:34:28.709Z,1014.75
2018-05-17T10:35:28.701Z,1014.74
2018-05-17T10:36:28.690Z,1014.74
2018-05-17T10:37:28.687Z,1014.68
2018-05-17T10:38:28.668Z,1014.66
2018-05-17T10:39:28.662Z,1014.64
2018-05-17T10:42:28.637Z,1014.68
2018-05-17T10:43:28.628Z,1014.63
2018-05-17T10:44:28.622Z,1014.64
2018-05-17T10:45:28.760Z,1014.67
2018-05-17T10:46:28.602Z,1014.66
2018-05-17T10:47:28.687Z,1014.63
2018-05-17T10:48:28.581Z,1014.64
2018-05-17T10:49:28.625Z,1014.60
2018-05-17T10:50:28.568Z,1014.56
2018-05-17T10:51:28.557Z,1014.72
2018-05-17T10:52:28.548Z,1014.66
2018-05-17T10:53:28.583Z,1014.53
2018-05-17T10:54:28.656Z,1014.57
2018-05-17T10:55:28.572Z,1014.57
2018-05-17T10:56:28.513Z,1014.51
2018-05-17T10:57:28.503Z,1014.67
2018-05-17T10:58:28.496Z,1014.60
2018-05-17T10:59:28.487Z,1014.67
2018-05-17T11:00:28.475Z,1014.62
2018-05-17T11:01:28.471Z,1014.65
2018-05-17T11:02:28.459Z,1014.67
2018-05-17T11:03:28.448Z,1014.64
2018-05-17T11:04:28.438Z,1014.64
2018-05-17T11:05:28.429Z,1014.68
2018-05-17T11:06:28.422Z,1014.62
2018-05-17T11:07:28.413Z,1014.59
2018-05-17T11:08:28.403Z,1014.59
2018-05-17T11:09:28.401Z,1014.55
2018-05-17T11:10:28.390Z,1014.60
2018-05-17T11:11:28.378Z,1014.50
2018-05-17T11:12:28.367Z,1014.56
2018-05-17T11:13:28.359Z,1014.59
2018-05-17T11:14:28.352Z,1014.54
2018-05-17T11:15:28.342Z,1014.64
2018-05-17T11:16:28.330Z,1014.56
2018-05-17T11:17:28.319Z,1014.55
2018-05-17T11:18:28.323Z,1014.55
2018-05-17T11:19:28.307Z,1014.58
2018-05-17T11:20:28.294Z,1014.59
2018-05-17T11:21:28.287Z,1014.48
2018-05-17T11:22:28.281Z,1014.58
2018-05-17T11:23:28.271Z,1014.60
2018-05-17T11:24:28.270Z,1014.58
2018-05-17T11:25:28.255Z,1014.61
2018-05-17T11:26:28.313Z,1014.55
2018-05-17T11:27:28.233Z,1014.58
2018-05-17T11:28:28.238Z,1014.53
2018-05-17T11:29:28.218Z,1014.52
2018-05-17T11:30:28.214Z,1014.48
2018-05-17T11:31:28.197Z,1014.48
2018-05-17T11:32:28.191Z,1014.52
2018-05-17T11:33:28.186Z,1014.40
2018-05-17T11:34:28.281Z,1014.48
2018-05-17T11:35:28.169Z,1014.45
2018-05-17T11:36:28.163Z,1014.49
2018-05-17T11:37:28.143Z,1014.47
2018-05-17T11:38:28.170Z,1014.40
2018-05-17T11:39:28.129Z,1014.41
2018-05-17T11:40:28.117Z,1014.46
2018-05-17T11:41:28.107Z,1014.43
2018-05-17T11:42:28.108Z,1014.44
2018-05-17T11:43:28.098Z,1014.43
2018-05-17T11:44:28.078Z,1014.40
2018-05-17T11:45:28.079Z,1014.39
2018-05-17T11:46:28.063Z,1014.40
2018-05-17T11:47:28.063Z,1014.44
2018-05-17T11:48:28.145Z,1014.35
2018-05-17T11:49:28.043Z,1014.35
2018-05-17T11:50:28.078Z,1014.29
2018-05-17T11:51:28.028Z,1014.33
2018-05-17T11:52:28.018Z,1014.32
2018-05-17T11:53:28.009Z,1014.26
2018-05-17T11:54:28.033Z,1014.33
2018-05-17T11:55:27.992Z,1014.31
2018-05-17T11:56:27.983Z,1014.32
2018-05-17T11:57:27.973Z,1014.31
2018-05-17T11:58:27.962Z,1014.25
2018-05-17T11:59:27.950Z,1014.28
2018-05-17T12:00:27.951Z,1014.29
2018-05-17T12:01:27.941Z,1014.34
2018-05-17T12:02:27.927Z,1014.36
2018-05-17T12:03:27.922Z,1014.38
2018-05-17T12:04:27.913Z,1014.30
2018-05-17T12:05:27.903Z,1014.33
2018-05-17T12:06:27.899Z,1014.23
2018-05-17T12:07:27.902Z,1014.21
2018-05-17T12:08:27.880Z,1014.29
2018-05-17T12:09:27.868Z,1014.25